Terminal Aerodrome Forecast
Issued by NWS Mt. Holly, NJ

Home | Current Version | Previous Version | Text Only | Print | Product List | Glossary On
Versions: 1 2 3 4 5 6 7 8 9 10 11 12 13 14 15
000
FTAK31 PANC 271731
TAFABE
TAF
PABE 271731Z 2718/2818 19011KT P6SM VCSH SCT025 OVC040
     FM280400 19016KT P6SM SCT015 OVC025
     FM281000 21018G25KT 4SM -RA BR SCT008 OVC015=

USA.gov is the U.S. government's official web portal to all federal, state and local government web resources and services.